DENTE EDFE-ZZZZ
Flight info
| Callsign | DENTE |
|---|---|
| Flight time | N/A |
| Altitude | |
| Route | |
| Aircraft | C172 |
Departure
| Time | 2026-04-25 11:28 |
|---|---|
| Airport | Frankfurt-Egelsbach Airport (EDFE) |
Arrival
| Time | N/A |
|---|---|
| Airport | ZZZZ |
| Time | Latitude | Longitude | Altitude | Speed | Heading |
|---|---|---|---|---|---|
| 2026-04-25 11:27 | 49.97346 | 8.63883 | 1082 ft | 106 kts | 196° |
| 2026-04-25 11:28 | 49.97135 | 8.62746 | 1150 ft | 98 kts | 296° |
| 2026-04-25 11:28 | 49.97508 | 8.61811 | 1018 ft | 113 kts | 302° |
| 2026-04-25 11:28 | 49.97967 | 8.60788 | 909 ft | 112 kts | 309° |
| 2026-04-25 11:28 | 49.98540 | 8.60155 | 1077 ft | 100 kts | 340° |
| 2026-04-25 11:29 | 49.99235 | 8.59985 | 1103 ft | 99 kts | 355° |
| 2026-04-25 11:29 | 49.99930 | 8.59837 | 957 ft | 111 kts | 349° |
| 2026-04-25 11:29 | 50.00688 | 8.59605 | 927 ft | 101 kts | 329° |
| 2026-04-25 11:29 | 50.00819 | 8.58713 | 988 ft | 88 kts | 236° |
| 2026-04-25 11:30 | 50.00257 | 8.58521 | 1039 ft | 93 kts | 156° |
| 2026-04-25 11:30 | 50.00009 | 8.59314 | 1075 ft | 92 kts | 62° |
| 2026-04-25 11:30 | 50.00627 | 8.59586 | 880 ft | 108 kts | 347° |
| 2026-04-25 11:30 | 50.01373 | 8.59284 | 810 ft | 109 kts | 334° |
| 2026-04-25 11:31 | 50.01781 | 8.58558 | 806 ft | 92 kts | 246° |
| 2026-04-25 11:31 | 50.01248 | 8.58285 | 837 ft | 100 kts | 153° |
| 2026-04-25 11:31 | 50.00904 | 8.59205 | 849 ft | 99 kts | 104° |
| 2026-04-25 11:31 | 50.01122 | 8.60183 | 760 ft | 103 kts | 40° |
| 2026-04-25 11:32 | 50.01728 | 8.60762 | 762 ft | 102 kts | 19° |
| 2026-04-25 11:32 | 50.02390 | 8.61166 | 770 ft | 96 kts | 18° |
| 2026-04-25 11:32 | 50.02987 | 8.61350 | 770 ft | 92 kts | 357° |
| 2026-04-25 11:32 | 50.03597 | 8.61221 | 764 ft | 89 kts | 332° |
| 2026-04-25 11:33 | 50.04100 | 8.60781 | 741 ft | 84 kts | 304° |
| 2026-04-25 11:33 | 50.04255 | 8.59887 | 668 ft | 92 kts | 265° |
| 2026-04-25 11:33 | 50.04051 | 8.58825 | 439 ft | 109 kts | 250° |
| 2026-04-25 11:33 | 50.03800 | 8.57773 | 363 ft | 92 kts | 251° |
| 2026-04-25 11:34 | 50.03578 | 8.56876 | 383 ft | 95 kts | 249° |
| 2026-04-25 11:34 | 50.03354 | 8.55910 | 616 ft | 92 kts | 253° |
| 2026-04-25 11:34 | 50.03146 | 8.54963 | 820 ft | 99 kts | 245° |
| 2026-04-25 11:34 | 50.02589 | 8.54443 | 1134 ft | 97 kts | 184° |
| 2026-04-25 11:35 | 50.01977 | 8.54711 | 1454 ft | 92 kts | 147° |
| 2026-04-25 11:35 | 50.01392 | 8.55360 | 1481 ft | 115 kts | 146° |
| 2026-04-25 11:35 | 50.00641 | 8.56025 | 1366 ft | 131 kts | 154° |
| 2026-04-25 11:35 | 49.99854 | 8.56757 | 1319 ft | 133 kts | 142° |
| 2026-04-25 11:36 | 49.99266 | 8.57855 | 1256 ft | 134 kts | 123° |
| 2026-04-25 11:36 | 49.98757 | 8.59074 | 1132 ft | 129 kts | 128° |
| 2026-04-25 11:36 | 49.98155 | 8.59993 | 1123 ft | 114 kts | 149° |
| 2026-04-25 11:36 | 49.97434 | 8.60449 | 1079 ft | 112 kts | 160° |
| 2026-04-25 11:37 | 49.96828 | 8.61176 | 1010 ft | 112 kts | 127° |
| 2026-04-25 11:37 | 49.96555 | 8.62317 | 937 ft | 117 kts | 95° |
| 2026-04-25 11:37 | 49.96596 | 8.63596 | 771 ft | 120 kts | 83° |
| 2026-04-25 11:37 | 49.96702 | 8.64875 | 669 ft | 119 kts | 81° |
| 2026-04-25 11:38 | 49.96407 | 8.65461 | 741 ft | 74 kts | 195° |
| 2026-04-25 11:38 | 49.96104 | 8.64951 | 433 ft | 72 kts | 271° |
| 2026-04-25 11:38 | 49.96092 | 8.64295 | 393 ft | 49 kts | 267° |
| 2026-04-25 11:38 | 49.96073 | 8.63890 | 390 ft | 24 kts | 264° |
| 2026-04-25 11:39 | 49.96073 | 8.63784 | 388 ft | 8 kts | 311° |
| 2026-04-25 11:39 | 49.96118 | 8.63809 | 387 ft | 8 kts | 40° |
| 2026-04-25 11:39 | 49.96153 | 8.63816 | 386 ft | 5 kts | 298° |
| 2026-04-25 11:39 | 49.96150 | 8.63772 | 386 ft | 3 kts | 260° |
| 2026-04-25 11:40 | 49.96149 | 8.63763 | 386 ft | 1 kts | 260° |
| 2026-04-25 11:40 | 49.96150 | 8.63730 | 386 ft | 4 kts | 297° |
| 2026-04-25 11:40 | 49.96175 | 8.63722 | 385 ft | 4 kts | 7° |
| 2026-04-25 11:40 | 49.96186 | 8.63724 | 385 ft | 0 kts | 6° |